createdAt,value
2023-01-09T00:01:13.387Z,5.18
2023-01-09T00:03:41.107Z,5.22
2023-01-09T00:06:08.891Z,4.65
2023-01-09T00:08:38.018Z,5.13
2023-01-09T00:11:06.794Z,4.53
2023-01-09T00:13:34.723Z,4.32
2023-01-09T00:16:02.511Z,4.50
2023-01-09T00:18:30.209Z,4.43
2023-01-09T00:21:00.797Z,4.35
2023-01-09T00:23:28.632Z,4.10
2023-01-09T00:26:05.326Z,4.18
2023-01-09T00:28:35.317Z,3.80
2023-01-09T00:31:05.414Z,3.85
2023-01-09T00:33:34.839Z,3.55
2023-01-09T00:36:03.108Z,4.30
2023-01-09T00:38:31.053Z,3.78
2023-01-09T00:41:00.582Z,4.35
2023-01-09T00:43:33.514Z,3.17
2023-01-09T00:46:04.890Z,3.15
2023-01-09T00:48:34.525Z,3.33
2023-01-09T00:51:02.386Z,3.28
2023-01-09T00:53:33.807Z,3.45
2023-01-09T00:56:06.207Z,3.10
2023-01-09T00:58:36.220Z,2.90
2023-01-09T01:01:04.320Z,2.40
2023-01-09T01:03:32.128Z,2.40
2023-01-09T01:06:17.686Z,2.33
2023-01-09T01:08:46.272Z,2.20
2023-01-09T01:11:14.058Z,1.95
2023-01-09T01:13:43.509Z,2.33
2023-01-09T01:16:14.195Z,2.17
2023-01-09T01:18:42.043Z,1.80
2023-01-09T01:21:11.104Z,2.30
2023-01-09T01:23:39.161Z,2.13
2023-01-09T01:26:08.414Z,2.25
2023-01-09T01:28:36.612Z,2.20
2023-01-09T01:31:06.694Z,2.53
2023-01-09T01:33:35.408Z,2.25
2023-01-09T01:36:05.160Z,2.10
2023-01-09T01:38:33.963Z,2.20
2023-01-09T01:41:02.758Z,2.13
2023-01-09T01:43:52.805Z,2.28
2023-01-09T01:46:21.975Z,2.20
2023-01-09T01:48:54.382Z,1.98
2023-01-09T01:51:24.697Z,1.75
2023-01-09T01:53:56.936Z,1.90
2023-01-09T01:56:29.237Z,1.90
2023-01-09T01:59:00.241Z,1.75
2023-01-09T02:01:30.705Z,1.48
2023-01-09T02:03:59.879Z,1.70
2023-01-09T02:06:28.348Z,1.70
2023-01-09T02:08:56.695Z,1.52
2023-01-09T02:11:24.438Z,1.58
2023-01-09T02:13:52.822Z,1.23
2023-01-09T02:16:35.717Z,1.58
2023-01-09T02:19:12.591Z,1.30
2023-01-09T02:21:51.345Z,1.48
2023-01-09T02:24:37.696Z,1.20
2023-01-09T02:27:33.569Z,1.15
2023-01-09T02:30:33.043Z,1.35
2023-01-09T02:33:10.441Z,1.05
2023-01-09T02:35:59.166Z,0.98
2023-01-09T02:38:36.724Z,0.80
2023-01-09T02:41:12.685Z,0.98
2023-01-09T02:43:41.542Z,1.10
2023-01-09T02:46:20.306Z,0.70
2023-01-09T02:48:52.022Z,0.70
2023-01-09T02:51:27.107Z,0.50
2023-01-09T02:54:15.833Z,0.70
2023-01-09T02:56:59.659Z,0.50
2023-01-09T02:59:35.542Z,0.57
2023-01-09T03:02:22.832Z,0.70
2023-01-09T03:05:00.530Z,0.65
2023-01-09T03:07:35.700Z,0.60
2023-01-09T03:10:11.323Z,0.50
2023-01-09T03:12:41.662Z,0.50
2023-01-09T03:15:12.649Z,0.50
2023-01-09T03:17:45.136Z,0.40
2023-01-09T03:20:16.194Z,0.50
2023-01-09T03:22:53.806Z,0.40
2023-01-09T03:25:21.840Z,0.52
2023-01-09T03:27:53.527Z,0.60
2023-01-09T03:30:21.576Z,0.50
2023-01-09T03:32:50.930Z,0.40
2023-01-09T03:35:18.577Z,0.35
2023-01-09T03:37:46.473Z,0.60
2023-01-09T03:40:14.389Z,0.30
2023-01-09T03:42:42.147Z,0.43
2023-01-09T03:45:10.727Z,0.50
2023-01-09T03:47:38.437Z,0.40
2023-01-09T03:50:09.678Z,0.50
2023-01-09T03:52:37.653Z,0.45
2023-01-09T03:55:06.911Z,0.50
2023-01-09T03:57:34.795Z,0.60
2023-01-09T04:00:02.832Z,0.68
2023-01-09T04:02:39.787Z,0.52
2023-01-09T04:05:09.842Z,0.50
2023-01-09T04:07:37.653Z,0.68
2023-01-09T04:10:07.295Z,0.50
2023-01-09T04:12:35.045Z,0.50
2023-01-09T04:15:02.751Z,0.50
2023-01-09T04:17:30.519Z,0.20
2023-01-09T04:19:59.160Z,0.43
2023-01-09T04:22:28.268Z,0.35
2023-01-09T04:24:55.980Z,0.35
2023-01-09T04:27:24.155Z,0.70
2023-01-09T04:29:51.892Z,0.55
2023-01-09T04:32:19.561Z,0.60
2023-01-09T04:34:47.285Z,0.50
2023-01-09T04:37:15.227Z,0.60
2023-01-09T04:39:44.324Z,0.73
2023-01-09T04:42:12.785Z,1.00
2023-01-09T04:44:40.545Z,0.52
2023-01-09T04:47:08.472Z,0.60
2023-01-09T04:49:36.236Z,0.60
2023-01-09T04:52:04.062Z,0.70
2023-01-09T04:54:31.944Z,0.50
2023-01-09T04:57:01.105Z,0.70
2023-01-09T04:59:28.846Z,1.10
2023-01-09T05:01:58.249Z,0.65
2023-01-09T05:04:26.629Z,0.50
2023-01-09T05:06:54.394Z,0.57
2023-01-09T05:09:22.777Z,0.70
2023-01-09T05:11:51.299Z,0.68
2023-01-09T05:14:20.498Z,0.95
2023-01-09T05:16:48.212Z,0.50
2023-01-09T05:19:16.052Z,0.60
2023-01-09T05:21:43.776Z,0.65
2023-01-09T05:24:11.694Z,0.80
2023-01-09T05:26:39.403Z,0.70
2023-01-09T05:29:07.322Z,0.80
2023-01-09T05:31:36.756Z,2.70
2023-01-09T05:34:04.440Z,1.15
2023-01-09T05:36:32.045Z,0.50
2023-01-09T05:39:00.484Z,0.60
2023-01-09T05:41:28.141Z,0.80
2023-01-09T05:43:55.952Z,0.80
2023-01-09T05:46:23.665Z,0.50
2023-01-09T05:48:52.826Z,0.43
2023-01-09T05:51:20.515Z,0.70
2023-01-09T05:53:48.236Z,1.20
2023-01-09T05:56:16.051Z,0.88
2023-01-09T05:58:43.764Z,0.52
2023-01-09T06:01:11.535Z,0.70
2023-01-09T06:03:39.222Z,0.80
2023-01-09T06:06:08.654Z,0.80
2023-01-09T06:08:36.523Z,10.00
2023-01-09T06:11:04.199Z,2.90
2023-01-09T06:13:31.930Z,0.98
2023-01-09T06:15:59.932Z,1.10
2023-01-09T06:18:27.680Z,1.00
2023-01-09T06:20:55.373Z,0.90
2023-01-09T06:23:24.500Z,1.10
2023-01-09T06:25:52.543Z,0.90
2023-01-09T06:28:20.244Z,1.08
2023-01-09T06:30:51.595Z,1.10
2023-01-09T06:33:19.824Z,1.05
2023-01-09T06:35:47.536Z,0.88
2023-01-09T06:38:15.247Z,0.68
2023-01-09T06:40:44.368Z,0.88
2023-01-09T06:43:12.419Z,1.08
2023-01-09T06:45:40.183Z,0.98
2023-01-09T06:48:08.322Z,1.15
2023-01-09T06:50:36.100Z,0.60
2023-01-09T06:53:04.647Z,0.60
2023-01-09T06:55:32.540Z,0.88
2023-01-09T06:58:01.645Z,0.82
2023-01-09T07:00:29.823Z,0.93
2023-01-09T07:02:57.645Z,0.88
2023-01-09T07:05:25.703Z,0.80
2023-01-09T07:07:53.693Z,0.90
2023-01-09T07:10:21.759Z,0.90
2023-01-09T07:12:49.612Z,1.25
2023-01-09T07:15:18.805Z,0.70
2023-01-09T07:17:46.732Z,0.95
2023-01-09T07:20:14.607Z,1.02
2023-01-09T07:22:42.364Z,2.63
2023-01-09T07:25:10.358Z,1.17
2023-01-09T07:27:38.161Z,1.40
2023-01-09T07:30:07.987Z,1.17
2023-01-09T07:32:38.460Z,1.05
2023-01-09T07:35:07.205Z,1.10
2023-01-09T07:37:35.285Z,0.88
2023-01-09T07:40:03.534Z,1.05
2023-01-09T07:42:31.293Z,1.20
2023-01-09T07:44:59.044Z,0.90
2023-01-09T07:47:27.396Z,2.03
2023-01-09T07:49:56.507Z,1.20
2023-01-09T07:52:24.222Z,1.35
2023-01-09T07:54:52.013Z,0.90
2023-01-09T07:57:19.994Z,1.00
2023-01-09T07:59:47.837Z,0.70
2023-01-09T08:02:15.656Z,0.60
2023-01-09T08:04:43.465Z,1.33
2023-01-09T08:07:12.654Z,0.90
2023-01-09T08:09:40.399Z,1.02
2023-01-09T08:12:08.398Z,1.10
2023-01-09T08:14:36.686Z,1.27
2023-01-09T08:17:04.420Z,1.00
2023-01-09T08:19:32.432Z,0.82
2023-01-09T08:22:00.264Z,1.23
2023-01-09T08:24:30.098Z,1.00
2023-01-09T08:26:57.783Z,1.00
2023-01-09T08:29:25.607Z,1.20
2023-01-09T08:31:53.350Z,1.05
2023-01-09T08:34:21.093Z,1.40
2023-01-09T08:36:48.908Z,1.10
2023-01-09T08:39:16.684Z,1.00
2023-01-09T08:42:03.409Z,1.15
2023-01-09T08:44:48.569Z,1.23
2023-01-09T08:47:17.401Z,1.05
2023-01-09T08:49:45.087Z,1.25
2023-01-09T08:52:13.680Z,1.20
2023-01-09T08:54:41.544Z,0.98
2023-01-09T08:57:10.632Z,0.90
2023-01-09T08:59:38.353Z,0.90
2023-01-09T09:02:06.156Z,1.27
2023-01-09T09:04:33.931Z,1.33
2023-01-09T09:07:01.628Z,1.20
2023-01-09T09:09:29.410Z,0.88
2023-01-09T09:11:57.139Z,1.02
2023-01-09T09:14:43.853Z,1.00
2023-01-09T09:17:11.604Z,1.00
2023-01-09T09:19:42.481Z,0.90
2023-01-09T09:22:10.217Z,0.80
2023-01-09T09:24:37.982Z,0.70
2023-01-09T09:27:05.840Z,0.75
2023-01-09T09:29:34.903Z,0.50
2023-01-09T09:32:02.597Z,0.60
2023-01-09T09:34:30.795Z,0.77
2023-01-09T09:36:58.470Z,0.55
2023-01-09T09:39:26.123Z,0.52
2023-01-09T09:42:31.786Z,0.50
2023-01-09T09:45:13.145Z,0.30
2023-01-09T09:47:49.897Z,0.90
2023-01-09T09:50:49.040Z,0.60
2023-01-09T09:53:20.454Z,0.45
2023-01-09T09:55:51.055Z,0.68
2023-01-09T09:58:23.172Z,0.45
2023-01-09T10:00:53.665Z,0.50
2023-01-09T10:03:33.887Z,0.68
2023-01-09T10:06:06.243Z,0.50
2023-01-09T10:08:41.437Z,0.52
2023-01-09T10:11:16.623Z,0.65
2023-01-09T10:14:04.187Z,0.70
2023-01-09T10:16:56.288Z,0.70
2023-01-09T10:19:47.611Z,0.60
2023-01-09T10:22:25.228Z,0.75
2023-01-09T10:25:13.578Z,0.80
2023-01-09T10:27:58.241Z,0.93
2023-01-09T10:30:33.890Z,0.70
2023-01-09T10:33:14.431Z,0.70
2023-01-09T10:35:56.691Z,0.63
2023-01-09T10:38:29.590Z,0.88
2023-01-09T10:41:03.935Z,3.60
2023-01-09T10:43:39.868Z,0.77
2023-01-09T10:46:13.184Z,0.70
2023-01-09T10:48:46.674Z,0.77
2023-01-09T10:51:19.851Z,0.63
2023-01-09T10:53:52.052Z,1.00
2023-01-09T10:56:24.468Z,0.70
2023-01-09T10:58:53.969Z,0.70
2023-01-09T11:01:26.933Z,0.68
2023-01-09T11:03:59.078Z,0.60
2023-01-09T11:06:30.997Z,1.10
2023-01-09T11:09:01.615Z,0.77
2023-01-09T11:11:34.990Z,0.90
2023-01-09T11:14:10.397Z,0.45
2023-01-09T11:16:38.200Z,1.17
2023-01-09T11:19:15.264Z,1.00
2023-01-09T11:21:42.995Z,0.55
2023-01-09T11:24:28.613Z,0.80
2023-01-09T11:27:24.439Z,0.50
2023-01-09T11:30:14.740Z,0.50
2023-01-09T11:32:43.046Z,0.70
2023-01-09T11:35:20.630Z,0.63
2023-01-09T11:37:50.121Z,0.63
2023-01-09T11:40:19.980Z,0.65
2023-01-09T11:43:11.405Z,0.50
2023-01-09T11:45:53.196Z,0.60
2023-01-09T11:48:34.586Z,0.63
2023-01-09T11:51:06.810Z,0.70
2023-01-09T11:53:56.543Z,0.57
2023-01-09T11:56:24.721Z,0.50
2023-01-09T11:58:52.555Z,0.60
2023-01-09T12:01:54.483Z,0.50
2023-01-09T12:04:29.459Z,0.57
2023-01-09T12:07:23.718Z,0.60
2023-01-09T12:10:01.979Z,0.70
2023-01-09T12:12:37.898Z,0.60
2023-01-09T12:15:24.600Z,0.80
2023-01-09T12:18:08.966Z,0.52
2023-01-09T12:20:52.442Z,0.60
2023-01-09T12:23:33.413Z,1.63
2023-01-09T12:26:11.577Z,1.25
2023-01-09T12:29:12.061Z,0.50
2023-01-09T12:32:00.847Z,0.70
2023-01-09T12:34:43.801Z,0.60
2023-01-09T12:37:32.478Z,0.40
2023-01-09T12:40:12.512Z,0.40
2023-01-09T12:42:51.278Z,0.40
2023-01-09T12:45:41.323Z,0.40
2023-01-09T12:48:21.425Z,0.50
2023-01-09T12:51:10.224Z,0.60
2023-01-09T12:53:44.151Z,0.70
2023-01-09T12:56:19.396Z,0.50
2023-01-09T12:58:50.432Z,0.68
2023-01-09T13:01:23.230Z,0.60
2023-01-09T13:04:01.903Z,0.60
2023-01-09T13:06:32.556Z,0.60
2023-01-09T13:09:14.358Z,0.95
2023-01-09T13:11:50.959Z,1.00
2023-01-09T13:14:25.414Z,0.40
2023-01-09T13:16:55.941Z,0.40
2023-01-09T13:19:28.205Z,0.45
2023-01-09T13:21:58.632Z,0.45
2023-01-09T13:24:34.712Z,0.63
2023-01-09T13:27:07.982Z,0.50
2023-01-09T13:29:39.577Z,0.57
2023-01-09T13:32:36.244Z,0.80
2023-01-09T13:35:04.961Z,0.73
2023-01-09T13:37:35.365Z,0.50
2023-01-09T13:40:06.053Z,0.75
2023-01-09T13:42:39.143Z,0.60
2023-01-09T13:45:19.775Z,0.93
2023-01-09T13:47:47.878Z,0.73
2023-01-09T13:50:25.254Z,0.98
2023-01-09T13:52:53.602Z,0.73
2023-01-09T13:55:28.882Z,0.88
2023-01-09T13:58:25.441Z,1.08
2023-01-09T14:01:00.061Z,0.90
2023-01-09T14:03:32.995Z,0.88
2023-01-09T14:06:25.097Z,0.70
2023-01-09T14:09:13.688Z,0.55
2023-01-09T14:11:41.690Z,0.70
2023-01-09T14:14:27.372Z,0.40
2023-01-09T14:16:55.244Z,9.30
2023-01-09T14:19:35.943Z,1.50
2023-01-09T14:22:05.075Z,1.08
2023-01-09T14:24:40.483Z,1.05
2023-01-09T14:27:47.874Z,1.10
2023-01-09T14:30:31.700Z,0.80
2023-01-09T14:33:03.019Z,0.77
2023-01-09T14:35:39.975Z,0.88
2023-01-09T14:38:26.982Z,1.10
2023-01-09T14:40:59.854Z,0.70
2023-01-09T14:43:45.117Z,1.10
2023-01-09T14:46:18.774Z,0.98
2023-01-09T14:48:58.161Z,1.13
2023-01-09T14:51:28.860Z,0.80
2023-01-09T14:53:59.920Z,1.10
2023-01-09T14:56:30.168Z,0.60
2023-01-09T14:59:06.061Z,1.05
2023-01-09T15:01:37.215Z,0.70
2023-01-09T15:04:09.134Z,0.80
2023-01-09T15:06:41.636Z,0.80
2023-01-09T15:09:21.299Z,1.25
2023-01-09T15:11:49.888Z,1.05
2023-01-09T15:14:26.829Z,1.08
2023-01-09T15:16:56.237Z,0.95
2023-01-09T15:19:24.531Z,0.90
2023-01-09T15:22:00.428Z,0.68
2023-01-09T15:24:29.963Z,0.88
2023-01-09T15:26:59.782Z,0.90
2023-01-09T15:29:28.678Z,1.17
2023-01-09T15:32:02.862Z,0.90
2023-01-09T15:34:30.803Z,0.90
2023-01-09T15:36:58.682Z,1.20
2023-01-09T15:39:29.274Z,1.02
2023-01-09T15:42:15.001Z,1.40
2023-01-09T15:44:46.336Z,1.13
2023-01-09T15:47:21.225Z,1.00
2023-01-09T15:49:49.645Z,0.75
2023-01-09T15:52:19.157Z,1.00
2023-01-09T15:54:47.505Z,1.30
2023-01-09T15:57:34.043Z,0.88
2023-01-09T16:00:31.997Z,0.70
2023-01-09T16:03:11.160Z,0.40
2023-01-09T16:05:43.459Z,3.13
2023-01-09T16:08:35.866Z,4.95
2023-01-09T16:11:05.944Z,0.75
2023-01-09T16:13:39.269Z,0.82
2023-01-09T16:16:08.253Z,0.60
2023-01-09T16:18:39.700Z,0.98
2023-01-09T16:21:32.749Z,0.60
2023-01-09T16:24:03.548Z,0.60
2023-01-09T16:26:32.703Z,0.70
2023-01-09T16:29:28.467Z,0.80
2023-01-09T16:32:00.439Z,1.00
2023-01-09T16:34:29.937Z,0.60
2023-01-09T16:36:57.877Z,0.60
2023-01-09T16:39:26.436Z,0.88
2023-01-09T16:42:15.114Z,0.65
2023-01-09T16:44:42.874Z,0.60
2023-01-09T16:47:12.595Z,0.60
2023-01-09T16:49:41.592Z,0.70
2023-01-09T16:52:16.440Z,0.63
2023-01-09T16:54:46.686Z,0.80
2023-01-09T16:57:18.154Z,0.73
2023-01-09T16:59:46.662Z,0.77
2023-01-09T17:02:18.836Z,0.95
2023-01-09T17:04:47.983Z,1.05
2023-01-09T17:07:17.502Z,0.70
2023-01-09T17:09:45.712Z,0.75
2023-01-09T17:12:17.696Z,1.00
2023-01-09T17:14:45.392Z,1.20
2023-01-09T17:17:13.301Z,1.17
2023-01-09T17:19:41.037Z,1.30
2023-01-09T17:22:10.618Z,1.63
2023-01-09T17:24:55.717Z,1.90
2023-01-09T17:27:44.978Z,1.20
2023-01-09T17:30:18.939Z,1.38
2023-01-09T17:32:47.398Z,1.65
2023-01-09T17:35:16.118Z,2.17
2023-01-09T17:37:45.785Z,1.98
2023-01-09T17:40:19.731Z,2.20
2023-01-09T17:42:47.512Z,1.52
2023-01-09T17:45:15.641Z,2.30
2023-01-09T17:47:43.322Z,1.90
2023-01-09T17:50:18.725Z,1.20
2023-01-09T17:52:47.991Z,1.00
2023-01-09T17:55:15.927Z,1.15
2023-01-09T17:57:44.473Z,1.67
2023-01-09T18:00:24.811Z,1.13
2023-01-09T18:02:53.367Z,1.38
2023-01-09T18:05:21.658Z,1.25
2023-01-09T18:07:51.331Z,0.90
2023-01-09T18:10:23.084Z,0.98
2023-01-09T18:12:51.803Z,0.55
2023-01-09T18:15:19.717Z,0.63
2023-01-09T18:17:47.835Z,0.50
2023-01-09T18:20:15.724Z,0.57
2023-01-09T18:22:43.446Z,0.52
2023-01-09T18:25:12.804Z,0.70
2023-01-09T18:27:40.607Z,1.02
2023-01-09T18:30:09.524Z,0.95
2023-01-09T18:32:39.975Z,1.80
2023-01-09T18:35:08.777Z,1.75
2023-01-09T18:37:37.120Z,2.58
2023-01-09T18:40:05.830Z,2.20
2023-01-09T18:42:34.928Z,1.52
2023-01-09T18:45:02.821Z,1.42
2023-01-09T18:47:30.549Z,2.28
2023-01-09T18:49:58.209Z,2.00
2023-01-09T18:52:26.102Z,2.45
2023-01-09T18:54:53.819Z,2.67
2023-01-09T18:57:21.647Z,2.35
2023-01-09T18:59:50.747Z,1.92
2023-01-09T19:02:20.532Z,2.38
2023-01-09T19:04:48.275Z,2.50
2023-01-09T19:07:16.374Z,1.50
2023-01-09T19:09:44.596Z,1.45
2023-01-09T19:12:12.866Z,1.92
2023-01-09T19:14:40.606Z,1.77
2023-01-09T19:17:09.857Z,1.58
2023-01-09T19:19:37.729Z,0.80
2023-01-09T19:22:05.906Z,1.05
2023-01-09T19:24:33.802Z,1.35
2023-01-09T19:27:01.603Z,1.70
2023-01-09T19:29:29.432Z,1.98
2023-01-09T19:31:57.485Z,1.52
2023-01-09T19:34:26.762Z,1.27
2023-01-09T19:36:54.771Z,1.30
2023-01-09T19:39:22.767Z,1.10
2023-01-09T19:41:50.459Z,0.93
2023-01-09T19:44:18.964Z,1.10
2023-01-09T19:46:46.725Z,2.00
2023-01-09T19:49:14.392Z,6.35
2023-01-09T19:51:43.453Z,1.40
2023-01-09T19:54:11.924Z,1.33
2023-01-09T19:56:43.683Z,1.10
2023-01-09T19:59:11.995Z,1.30
2023-01-09T20:01:42.491Z,1.10
2023-01-09T20:04:15.198Z,1.17
2023-01-09T20:06:46.665Z,1.30
2023-01-09T20:09:16.456Z,1.10
2023-01-09T20:11:44.746Z,1.35
2023-01-09T20:14:13.676Z,1.20
2023-01-09T20:16:42.447Z,1.10
2023-01-09T20:19:11.863Z,1.60
2023-01-09T20:21:39.530Z,2.03
2023-01-09T20:24:09.985Z,1.60
2023-01-09T20:26:39.480Z,2.08
2023-01-09T20:29:08.746Z,3.10
2023-01-09T20:31:37.020Z,2.05
2023-01-09T20:34:05.060Z,1.85
2023-01-09T20:36:34.826Z,1.77
2023-01-09T20:39:05.017Z,1.58
2023-01-09T20:41:34.661Z,1.90
2023-01-09T20:44:04.956Z,4.85
2023-01-09T20:46:36.791Z,5.72
2023-01-09T20:49:06.620Z,3.55
2023-01-09T20:51:34.793Z,2.15
2023-01-09T20:54:03.575Z,2.20
2023-01-09T20:56:32.846Z,1.80
2023-01-09T20:59:01.896Z,1.63
2023-01-09T21:01:29.904Z,2.42
2023-01-09T21:03:57.910Z,2.55
2023-01-09T21:06:26.631Z,1.90
2023-01-09T21:08:54.521Z,1.98
2023-01-09T21:11:23.541Z,1.88
2023-01-09T21:13:51.739Z,2.20
2023-01-09T21:16:24.258Z,1.90
2023-01-09T21:18:54.095Z,1.95
2023-01-09T21:21:23.929Z,1.58
2023-01-09T21:23:53.684Z,2.25
2023-01-09T21:26:24.747Z,2.45
2023-01-09T21:28:54.998Z,2.30
2023-01-09T21:31:26.292Z,2.22
2023-01-09T21:33:55.230Z,2.00
2023-01-09T21:36:23.159Z,2.20
2023-01-09T21:38:52.184Z,1.92
2023-01-09T21:41:39.848Z,2.38
2023-01-09T21:44:25.336Z,2.28
2023-01-09T21:46:56.131Z,1.85
2023-01-09T21:49:25.448Z,2.30
2023-01-09T21:51:54.044Z,2.13
2023-01-09T21:54:23.176Z,1.80
2023-01-09T21:56:51.002Z,2.00
2023-01-09T21:59:19.207Z,1.92
2023-01-09T22:01:48.411Z,1.80
2023-01-09T22:04:19.109Z,1.88
2023-01-09T22:06:46.879Z,1.67
2023-01-09T22:09:15.192Z,1.70
2023-01-09T22:11:44.010Z,2.53
2023-01-09T22:14:14.384Z,1.63
2023-01-09T22:16:42.293Z,1.75
2023-01-09T22:19:10.255Z,1.80
2023-01-09T22:21:39.639Z,2.05
2023-01-09T22:24:08.098Z,1.60
2023-01-09T22:26:36.105Z,1.90
2023-01-09T22:29:03.901Z,2.20
2023-01-09T22:31:32.763Z,1.90
2023-01-09T22:34:02.312Z,2.95
2023-01-09T22:36:31.729Z,2.13
2023-01-09T22:39:01.702Z,1.80
2023-01-09T22:41:30.743Z,2.00
2023-01-09T22:43:58.443Z,2.20
2023-01-09T22:46:26.485Z,1.90
2023-01-09T22:48:54.234Z,1.90
2023-01-09T22:51:22.806Z,2.00
2023-01-09T22:53:51.149Z,2.33
2023-01-09T22:56:22.737Z,2.15
2023-01-09T22:58:52.221Z,2.08
2023-01-09T23:01:20.807Z,1.88
2023-01-09T23:03:49.038Z,2.05
2023-01-09T23:06:19.980Z,3.22
2023-01-09T23:08:47.847Z,2.40
2023-01-09T23:11:39.931Z,2.60
2023-01-09T23:14:09.189Z,2.25
2023-01-09T23:16:37.051Z,2.05
2023-01-09T23:19:06.928Z,1.83
2023-01-09T23:21:34.620Z,1.70
2023-01-09T23:24:02.435Z,1.85
2023-01-09T23:26:30.103Z,1.80
2023-01-09T23:28:57.758Z,1.80
2023-01-09T23:31:27.415Z,1.75
2023-01-09T23:33:55.196Z,1.67
2023-01-09T23:36:23.385Z,1.90
2023-01-09T23:38:51.149Z,1.20
2023-01-09T23:41:19.084Z,1.30
2023-01-09T23:43:46.095Z,1.10
2023-01-09T23:46:14.024Z,1.45
2023-01-09T23:48:43.162Z,1.63
2023-01-09T23:51:10.929Z,1.48
2023-01-09T23:53:38.908Z,1.30
2023-01-09T23:56:06.800Z,1.45
2023-01-09T23:58:34.573Z,1.40
